Líbí se Vám tento web? Budeme velmi rádi, pokud přidáte hodnocení +1

Seznam meteostanic a jejich METAR

Vyhledat místa podle abecedy:
A B C D E F G H I J K L M N O P Q R S T U V W X Y Z

Filtrovat:

ID stanice:
a/nebo
Název místa (fulltext):
 
Místo (ID)Naposledy načteno 
Brno - Tuřany (Brno/Tu) 24.02.2017 19:00 UTC Zobrazit data
Místo: Brno - Tuřany
Teplota: 4 °C (pocitová: -3.6 °C)
Vítr: 5 m/s z(e) 310°
Počasí: oblačno
Dohlednost: 50 km
Zákl. oblačnosti: 2/8 1500 m;4/8 7200 m
Vlhkost: 61%
Červená - Opava (Cervena/uL) 24.02.2017 19:00 UTC Zobrazit data
Místo: Červená - Opava
Teplota: -1 °C (pocitová: -7.2 °C)
Vítr: 2 m/s z(e) 280°
Počasí: skorojasno
Dohlednost: 30 km
Zákl. oblačnosti: 1/8 1500 m
Vlhkost: 86%
České Budějovice (C.Budej/po) 24.02.2017 19:00 UTC Zobrazit data
Místo: České Budějovice
Teplota: 3 °C (pocitová: -3.3 °C)
Vítr: 3 m/s z(e) 310°
Počasí: oblačno
Dohlednost: 35 km
Zákl. oblačnosti: 1/8 1290 m;3/8 1500 m
Vlhkost: 60%
Cheb (Cheb) 24.02.2017 19:00 UTC Zobrazit data
Místo: Cheb
Teplota: 0 °C (pocitová: -5.9 °C)
Vítr: 2 m/s z(e) 280°
Počasí: slunečno
Dohlednost: 20 km
Zákl. oblačnosti: N/A
Vlhkost: 87%
Chotusice - Čáslav (Caslav) 24.02.2017 19:00 UTC Zobrazit data
Místo: Chotusice - Čáslav
Teplota: 1 °C (pocitová: -8.3 °C)
Vítr: 6 m/s z(e) 290°
Počasí: oblačno
Dohlednost: 20 km
Zákl. oblačnosti: 2/8 900 m;3/8 2100 m
Vlhkost: 87%
Churáňov (Churanov) 24.02.2017 19:00 UTC Zobrazit data
Místo: Churáňov
Teplota: -2 °C (pocitová: -11.1 °C)
Vítr: 4 m/s z(e) 310°
Počasí: skorojasno
Dohlednost: 30 km
Zákl. oblačnosti: 1/8 750 m
Vlhkost: 69%
Doksany - Litoměřice (Doksany) 24.02.2017 19:00 UTC Zobrazit data
Místo: Doksany - Litoměřice
Teplota: 1 °C (pocitová: -6 °C)
Vítr: 3 m/s z(e) 320°
Počasí: skorojasno
Dohlednost: 45 km
Zákl. oblačnosti: 1/8 1260 m
Vlhkost: 81%
Dukovany (Dukovany) 24.02.2017 19:00 UTC Zobrazit data
Místo: Dukovany
Teplota: 1 °C (pocitová: -9.6 °C)
Vítr: 9 m/s z(e) 300°
Počasí: skoro zataženo
Dohlednost: 20 km
Zákl. oblačnosti: 7/8 1290 m
Vlhkost: 87%
Holešov (Holesov) 24.02.2017 19:00 UTC Zobrazit data
Místo: Holešov
Teplota: 3 °C (pocitová: -6 °C)
Vítr: 7 m/s z(e) 340°
Počasí: skoro zataženo
Dohlednost: 35 km
Zákl. oblačnosti: 2/8 1500 m;5/8 4200 m
Vlhkost: 75%
Kadaň - Tušimice (Tusimice) 24.02.2017 19:00 UTC Zobrazit data
Místo: Kadaň - Tušimice
Teplota: 1 °C (pocitová: -7.8 °C)
Vítr: 5 m/s z(e) 300°
Počasí: oblačno
Dohlednost: 30 km
Zákl. oblačnosti: 3/8 810 m
Vlhkost: 87%
Karlovy Vary (K.Vary) 24.02.2017 19:00 UTC Zobrazit data
Místo: Karlovy Vary
Teplota: -1 °C (pocitová: -8.7 °C)
Vítr: 3 m/s z(e) 290°
Počasí: slunečno
Dohlednost: 30 km
Zákl. oblačnosti: N/A
Vlhkost: 80%
Kocelovice (Kocelovice) 24.02.2017 19:00 UTC Zobrazit data
Místo: Kocelovice
Teplota: 1 °C (pocitová: -7.8 °C)
Vítr: 5 m/s z(e) 310°
Počasí: oblačno
Dohlednost: 45 km
Zákl. oblačnosti: 2/8 870 m
Vlhkost: 75%
Kopisty (Kopisty) 24.02.2017 18:00 UTC Zobrazit data
Místo: Kopisty
Teplota: 1 °C (pocitová: -6 °C)
Vítr: 3 m/s z(e) 280°
Počasí: skorojasno
Dohlednost: 18 km
Zákl. oblačnosti: 2/8 870 m
Vlhkost: 81%
Kostelní Myslová (K.Myslova) 24.02.2017 19:00 UTC Zobrazit data
Místo: Kostelní Myslová
Teplota: 0 °C (pocitová: -9.2 °C)
Vítr: 5 m/s z(e) 300°
Počasí: skorojasno
Dohlednost: 29 km
Zákl. oblačnosti: 1/8 1380 m
Vlhkost: 87%
Křešín - Kramolín (Kramolin) 24.02.2017 19:00 UTC Zobrazit data
Místo: Křešín - Kramolín
Teplota: 0 °C (pocitová: -9.2 °C)
Vítr: 5 m/s z(e) 310°
Počasí: skorojasno
Dohlednost: 20 km
Zákl. oblačnosti: 1/8 1110 m
Vlhkost: 75%
Kuchařovice - Znojmo (Kucharovic) 24.02.2017 19:00 UTC Zobrazit data
Místo: Kuchařovice - Znojmo
Teplota: 3 °C (pocitová: -5.5 °C)
Vítr: 6 m/s z(e) 320°
Počasí: skorojasno
Dohlednost: 40 km
Zákl. oblačnosti: 1/8 6900 m
Vlhkost: 70%
Liberec (Liberec) 24.02.2017 19:00 UTC Zobrazit data
Místo: Liberec
Teplota: 0 °C (pocitová: -9.7 °C)
Vítr: 6 m/s z(e) 300°
Počasí: skoro zataženo
Dohlednost: 20 km
Zákl. oblačnosti: 7/8 390 m
Vlhkost: 93%
Luká (Luka) 24.02.2017 19:00 UTC Zobrazit data
Místo: Luká
Teplota: 0 °C (pocitová: -9.7 °C)
Vítr: 6 m/s z(e) 310°
Počasí: skoro zataženo
Dohlednost: 40 km
Zákl. oblačnosti: 1/8 540 m;4/8 1500 m
Vlhkost: 87%
Lysá Hora (Lysa Hora) 24.02.2017 16:00 UTC Zobrazit data
Místo: Lysá Hora
Teplota: -3 °C (pocitová: -16.4 °C)
Vítr: 11 m/s z(e) 300°
Počasí: skoro zataženo
Dohlednost: 45 km
Zákl. oblačnosti: 3/8 150 m;4/8 450 m
Vlhkost: 86%
Milešovka (Milesovka) 24.02.2017 19:00 UTC Zobrazit data
Místo: Milešovka
Teplota: -3 °C (pocitová: -16.4 °C)
Vítr: 11 m/s z(e) 320°
Počasí: skorojasno
Dohlednost: 55 km
Zákl. oblačnosti: 1/8 600 m
Vlhkost: 86%
Mošnov (Ostrava/Mo) 24.02.2017 19:00 UTC Zobrazit data
Místo: Mošnov
Teplota: 1 °C (pocitová: -3.1 °C)
Vítr: 1 m/s z(e) 0°
Počasí: zataženo
Dohlednost: 20 km
Zákl. oblačnosti: 2/8 1080 m;4/8 1320 m
Vlhkost: 93%
Náměšť nad Oslavou (Namest n/O) 24.02.2017 19:00 UTC Zobrazit data
Místo: Náměšť nad Oslavou
Teplota: 1 °C (pocitová: -9.5 °C)
Vítr: 8 m/s z(e) 320°
Počasí: sněží
Dohlednost: 2500 m
Zákl. oblačnosti: 7/8 750 m
Vlhkost: 87%
Pardubice (Pardubice) 24.02.2017 19:00 UTC Zobrazit data
Místo: Pardubice
Teplota: 2 °C (pocitová: -6.9 °C)
Vítr: 6 m/s z(e) 280°
Počasí: skoro zataženo
Dohlednost: 20 km
Zákl. oblačnosti: 5/8 2400 m
Vlhkost: 81%
Pec pod Sněžkou (Pec p.Snez) 24.02.2017 19:00 UTC Zobrazit data
Místo: Pec pod Sněžkou
Teplota: -3 °C (pocitová: -12.5 °C)
Vítr: 4 m/s z(e) 40°
Počasí: sněží
Dohlednost: 2000 m
Zákl. oblačnosti: 8/8 270 m
Vlhkost: 86%
Plzeň město - Mikulka (Plzen/Miku) 24.02.2017 19:00 UTC Zobrazit data
Místo: Plzeň město - Mikulka
Teplota: 2 °C (pocitová: -4.7 °C)
Vítr: 3 m/s z(e) 270°
Počasí: skorojasno
Dohlednost: 45 km
Zákl. oblačnosti: 1/8 1380 m
Vlhkost: 65%
Polom (Polom) 24.02.2017 19:00 UTC Zobrazit data
Místo: Polom
Teplota: -2 °C (pocitová: -11.1 °C)
Vítr: 4 m/s z(e) 360°
Počasí: skoro zataženo
Dohlednost: 30 km
Zákl. oblačnosti: 4/8 90 m;4/8 2400 m
Vlhkost: 93%
Praha - Karlov (Praha/Kar) 24.02.2017 19:00 UTC Zobrazit data
Místo: Praha - Karlov
Teplota: 2 °C (pocitová: -7.5 °C)
Vítr: 7 m/s z(e) 300°
Počasí: oblačno
Dohlednost: 50 km
Zákl. oblačnosti: 1/8 2400 m;3/8 5400 m
Vlhkost: 70%
Praha - Kbely (Praha/Kbe) 24.02.2017 19:00 UTC Zobrazit data
Místo: Praha - Kbely
Teplota: 1 °C (pocitová: -6 °C)
Vítr: 3 m/s z(e) 280°
Počasí: slunečno
Dohlednost: 25 km
Zákl. oblačnosti: N/A
Vlhkost: 81%
Praha - Libuš (Praha/Lib) 24.02.2017 19:00 UTC Zobrazit data
Místo: Praha - Libuš
Teplota: 2 °C (pocitová: -5.6 °C)
Vítr: 4 m/s z(e) 300°
Počasí: skorojasno
Dohlednost: 50 km
Zákl. oblačnosti: 1/8 1500 m
Vlhkost: 70%
Praha - Ruzyně (Praha/Ru) 24.02.2017 19:00 UTC Zobrazit data
Místo: Praha - Ruzyně
Teplota: 0 °C (pocitová: -9.2 °C)
Vítr: 5 m/s z(e) 280°
Počasí: skorojasno
Dohlednost: 40 km
Zákl. oblačnosti: 1/8 1800 m
Vlhkost: 80%
Přibyslav (Pribyslav) 24.02.2017 19:00 UTC Zobrazit data
Místo: Přibyslav
Teplota: 1 °C (pocitová: -9.6 °C)
Vítr: 9 m/s z(e) 310°
Počasí: skoro zataženo
Dohlednost: 30 km
Zákl. oblačnosti: 7/8 1140 m
Vlhkost: 75%
Přimda (Primda) 24.02.2017 19:00 UTC Zobrazit data
Místo: Přimda
Teplota: -1 °C (pocitová: -7.2 °C)
Vítr: 2 m/s z(e) 290°
Počasí: skorojasno
Dohlednost: 60 km
Zákl. oblačnosti: 1/8 1350 m
Vlhkost: 80%
Šerák (Serak) 24.02.2017 16:00 UTC Zobrazit data
Místo: Šerák
Teplota: -4 °C (pocitová: -15.4 °C)
Vítr: 6 m/s z(e) 300°
Počasí: sněží
Dohlednost: 10 km
Zákl. oblačnosti: 7/8 60 m
Vlhkost: 93%
Svratouch (Svratouch) 24.02.2017 19:00 UTC Zobrazit data
Místo: Svratouch
Teplota: -1 °C (pocitová: -11.8 °C)
Vítr: 7 m/s z(e) 310°
Počasí: skoro zataženo
Dohlednost: 35 km
Zákl. oblačnosti: 5/8 300 m;7/8 1500 m
Vlhkost: 86%
Temelín (Temelin) 24.02.2017 19:00 UTC Zobrazit data
Místo: Temelín
Teplota: 1 °C (pocitová: -8.9 °C)
Vítr: 7 m/s z(e) 300°
Počasí: oblačno
Dohlednost: 35 km
Zákl. oblačnosti: 3/8 1380 m
Vlhkost: 65%
Ústí nad Labem - Kočkov (Usti n/L) 24.02.2017 19:00 UTC Zobrazit data
Místo: Ústí nad Labem - Kočkov
Teplota: 0 °C (pocitová: -8.4 °C)
Vítr: 4 m/s z(e) 330°
Počasí: skorojasno
Dohlednost: 60 km
Zákl. oblačnosti: 1/8 660 m
Vlhkost: 80%
Ústí nad Orlicí (Usti n/O) 24.02.2017 19:00 UTC Zobrazit data
Místo: Ústí nad Orlicí
Teplota: 1 °C (pocitová: -7.8 °C)
Vítr: 5 m/s z(e) 310°
Počasí: skoro zataženo
Dohlednost: 25 km
Zákl. oblačnosti: 3/8 390 m;6/8 780 m
Vlhkost: 87%
Aalborg (EKYT) 24.02.2017 19:50 UTC Zobrazit METAR
EKYT 241950Z 31005KT CAVOK 02/M04 Q1008
Aarhus (EKAH) 19.02.2017 10:50 UTC Zobrazit METAR
EKAH 191050Z 23008KT 200V270 4000 BR FEW001 BKN002 07/07 Q1011
Abu Dhabi (OMAA) 24.02.2017 20:00 UTC Zobrazit METAR
OMAA 242000Z 35008KT CAVOK 25/13 Q1017 NOSIG
Abuja (DNAA) 24.02.2017 11:00 UTC Zobrazit METAR
DNAA 241100Z 11007KT 070V140 6000 NSC 34/00 Q1012 NOSIG
Accra (DGAA) 24.02.2017 20:00 UTC Zobrazit METAR
DGAA 242000Z 20010KT 9999 SCT016 29/26 Q1010 NOSIG
Addis Abeba (HAAB) 24.02.2017 19:00 UTC Zobrazit METAR
HAAB 241900Z 07006KT 9999 BKN025 15/12 Q1028
Agana (PGUM) 24.02.2017 19:54 UTC Zobrazit METAR
PGUM 241954Z 07010KT 10SM CLR 26/23 A2990 RMK AO2 SLP116 T02610233
Ahe Island (NTHE) Zatím nenačteno  
Akureyri (BIAR) 24.02.2017 20:00 UTC Zobrazit METAR
BIAR 242000Z 15034G46KT 9999 FEW050 BKN062 OVC070 05/M01 Q0966
Almaty (UAAA) Zatím nenačteno  
Amman (OJAM) 24.02.2017 20:00 UTC Zobrazit METAR
OJAM 242000Z 07003KT 5000 HZ NSC 12/M05 Q1026 NOSIG
Amsterdam (EHAM) 24.02.2017 19:55 UTC Zobrazit METAR
EHAM 241955Z 24007KT 9999 FEW018 03/02 Q1019 NOSIG
Antananarivo (FMMI) 24.02.2017 10:00 UTC Zobrazit METAR
FMMI 241000Z 07007KT 040V120 9999 SCT020 27/19 Q1020 NOSIG
1 2 3 ... 9 Další
Reklama

Počasí na Váš email

Emaily jsou bez reklamy a bez spamu



Odhlásit newsletter

Reklama


Lunární kalendář

  • 26.02.
  • 05.03.
  • 12.03.
  • 20.03.



Jsme na Google Plus

Reklama
Povinné ručení



Může Vás také zajímat:


Reklama